Time;durP1;ratioP1;P1;durP2;ratioP2;P2;SDS_P1;SDS_P2;PMS_P1;PMS_P2;Temp;Humidity;BMP_temperature;BMP_pressure;BME280_temperature;BME280_humidity;BME280_pressure;Samples;Min_cycle;Max_cycle;Signal;HPM_P1;HPM_P2
2024/02/10 00:02:12;;;;;;;4.22;3.15;;;;;;;;;;5055351;28;20071;-59
2024/02/10 00:04:38;;;;;;;6.13;5.07;;;;;;;;;;5055794;28;20076;-60
2024/02/10 00:07:05;;;;;;;6.50;5.63;;;;;;;;;;5055130;28;20491;-58
2024/02/10 00:09:31;;;;;;;7.03;6.05;;;;;;;;;;5054082;28;20036;-60
2024/02/10 00:11:58;;;;;;;9.85;7.55;;;;;;;;;;5055429;28;20025;-59
2024/02/10 00:14:24;;;;;;;8.48;7.13;;;;;;;;;;5055595;28;20040;-59
2024/02/10 00:16:50;;;;;;;11.63;7.63;;;;;;;;;;5055577;28;20033;-59
2024/02/10 00:19:16;;;;;;;9.40;8.40;;;;;;;;;;5055516;28;20078;-59
2024/02/10 00:21:45;;;;;;;10.90;8.68;;;;;;;;;;5054969;28;20051;-58
2024/02/10 00:24:11;;;;;;;18.38;10.95;;;;;;;;;;5054865;28;20532;-59
2024/02/10 00:26:38;;;;;;;12.60;10.48;;;;;;;;;;5054895;28;20028;-60
2024/02/10 00:29:04;;;;;;;12.63;9.85;;;;;;;;;;5055360;28;20354;-58
2024/02/10 00:31:30;;;;;;;11.10;9.90;;;;;;;;;;5055504;28;20102;-60
2024/02/10 00:33:57;;;;;;;13.48;11.25;;;;;;;;;;5055170;28;20028;-58
2024/02/10 00:36:23;;;;;;;10.45;9.10;;;;;;;;;;5054644;28;20094;-59
2024/02/10 00:38:49;;;;;;;11.95;10.65;;;;;;;;;;5055189;28;20116;-59
2024/02/10 00:41:16;;;;;;;12.55;11.10;;;;;;;;;;5055290;28;20116;-59
2024/02/10 00:43:42;;;;;;;18.15;11.10;;;;;;;;;;5055091;28;20525;-60
2024/02/10 00:46:15;;;;;;;12.43;10.63;;;;;;;;;;5054580;28;20025;-60
2024/02/10 00:48:41;;;;;;;10.93;9.63;;;;;;;;;;5054603;28;20029;-59
2024/02/10 00:51:07;;;;;;;12.43;10.57;;;;;;;;;;5055060;28;20041;-59
2024/02/10 00:53:42;;;;;;;10.82;9.65;;;;;;;;;;5054356;28;20120;-59
2024/02/10 00:56:10;;;;;;;11.80;9.90;;;;;;;;;;5054604;28;20044;-59
2024/02/10 00:58:40;;;;;;;10.88;9.63;;;;;;;;;;5054812;28;20400;-58
2024/02/10 01:01:09;;;;;;;10.93;9.77;;;;;;;;;;5055051;28;20036;-59
2024/02/10 01:03:35;;;;;;;12.70;11.07;;;;;;;;;;5054742;28;20036;-59
2024/02/10 01:06:04;;;;;;;12.95;11.60;;;;;;;;;;5054384;28;20451;-58
2024/02/10 01:08:30;;;;;;;12.25;11.00;;;;;;;;;;5054716;28;20028;-59
2024/02/10 01:10:56;;;;;;;12.13;9.75;;;;;;;;;;5054463;28;20033;-59
2024/02/10 01:13:26;;;;;;;11.13;10.02;;;;;;;;;;5054089;28;20538;-59
2024/02/10 01:15:54;;;;;;;11.95;9.57;;;;;;;;;;5054000;28;20040;-59
2024/02/10 01:18:20;;;;;;;10.38;8.60;;;;;;;;;;5054224;28;20391;-59
2024/02/10 01:20:46;;;;;;;11.05;8.52;;;;;;;;;;5053651;28;20029;-59
2024/02/10 01:23:12;;;;;;;9.90;8.63;;;;;;;;;;5053799;28;20041;-59
2024/02/10 01:25:41;;;;;;;8.85;7.90;;;;;;;;;;5054193;28;20359;-59
2024/02/10 01:28:07;;;;;;;7.38;6.68;;;;;;;;;;5054731;28;20033;-59
2024/02/10 01:30:34;;;;;;;9.43;7.50;;;;;;;;;;5053570;28;20447;-59
2024/02/10 01:33:00;;;;;;;7.88;7.10;;;;;;;;;;5054518;28;20419;-59
2024/02/10 01:35:26;;;;;;;7.32;6.28;;;;;;;;;;5053796;28;20071;-59
2024/02/10 01:37:52;;;;;;;8.63;7.75;;;;;;;;;;5053746;28;20021;-59
2024/02/10 01:40:18;;;;;;;8.45;7.00;;;;;;;;;;5053644;28;20040;-59
2024/02/10 01:42:44;;;;;;;7.43;6.45;;;;;;;;;;5053642;28;20025;-59
2024/02/10 01:45:14;;;;;;;8.95;7.32;;;;;;;;;;5053657;28;20080;-59
2024/02/10 01:47:42;;;;;;;8.75;6.25;;;;;;;;;;5054511;28;20028;-58
2024/02/10 01:50:09;;;;;;;6.22;5.63;;;;;;;;;;5053926;28;20147;-59
2024/02/10 01:52:38;;;;;;;6.70;5.68;;;;;;;;;;5053558;28;20021;-58
2024/02/10 01:55:10;;;;;;;6.00;5.32;;;;;;;;;;5053043;28;20460;-59
2024/02/10 01:57:36;;;;;;;7.38;5.65;;;;;;;;;;5053841;28;20013;-58
2024/02/10 02:00:06;;;;;;;7.07;5.28;;;;;;;;;;5053909;28;20037;-59
2024/02/10 02:02:33;;;;;;;5.97;4.43;;;;;;;;;;5053470;28;20374;-58
2024/02/10 02:05:03;;;;;;;5.60;4.78;;;;;;;;;;5053473;28;20017;-59
2024/02/10 02:07:30;;;;;;;7.72;5.13;;;;;;;;;;5053472;28;20387;-59
2024/02/10 02:09:56;;;;;;;5.00;4.50;;;;;;;;;;5053892;28;20025;-59
2024/02/10 02:12:22;;;;;;;7.05;4.90;;;;;;;;;;5053908;28;20036;-59
2024/02/10 02:14:48;;;;;;;5.68;4.72;;;;;;;;;;5053065;28;20100;-58
2024/02/10 02:17:14;;;;;;;7.28;4.82;;;;;;;;;;5053307;28;20485;-59
2024/02/10 02:19:42;;;;;;;6.07;5.45;;;;;;;;;;5053112;28;20100;-58
2024/02/10 02:22:09;;;;;;;7.25;5.78;;;;;;;;;;5053782;28;20032;-58
2024/02/10 02:24:35;;;;;;;6.47;5.30;;;;;;;;;;5052968;28;20460;-59
2024/02/10 02:27:02;;;;;;;6.15;5.32;;;;;;;;;;5052908;28;20170;-58
2024/02/10 02:29:34;;;;;;;8.70;6.00;;;;;;;;;;5053291;28;20036;-59
2024/02/10 02:32:00;;;;;;;7.50;6.25;;;;;;;;;;5053130;28;20021;-59
2024/02/10 02:34:27;;;;;;;5.97;5.38;;;;;;;;;;5056585;28;20028;-59
2024/02/10 02:36:53;;;;;;;6.65;5.93;;;;;;;;;;5057305;28;20460;-59
2024/02/10 02:39:19;;;;;;;8.32;7.28;;;;;;;;;;5057336;28;20032;-59
2024/02/10 02:41:49;;;;;;;7.63;6.63;;;;;;;;;;5056857;28;20455;-59
2024/02/10 02:44:15;;;;;;;8.93;8.13;;;;;;;;;;5056926;28;20031;-59
2024/02/10 02:46:41;;;;;;;9.80;8.55;;;;;;;;;;5057414;28;20036;-59
2024/02/10 02:49:08;;;;;;;7.80;7.03;;;;;;;;;;5057411;28;20045;-58
2024/02/10 02:51:35;;;;;;;7.70;6.70;;;;;;;;;;5057534;28;20036;-59
2024/02/10 02:54:01;;;;;;;7.18;6.47;;;;;;;;;;5057473;28;20045;-59
2024/02/10 02:56:27;;;;;;;9.43;8.50;;;;;;;;;;5056780;28;20045;-58
2024/02/10 02:58:54;;;;;;;9.52;8.07;;;;;;;;;;5057165;28;20364;-58
2024/02/10 03:01:20;;;;;;;12.27;8.57;;;;;;;;;;5056517;28;20037;-59
2024/02/10 03:03:49;;;;;;;10.63;9.52;;;;;;;;;;5056597;28;20112;-59
2024/02/10 03:06:17;;;;;;;9.38;8.05;;;;;;;;;;5057276;28;20048;-58
2024/02/10 03:08:45;;;;;;;12.23;9.48;;;;;;;;;;5057208;28;20033;-58
2024/02/10 03:11:17;;;;;;;10.30;9.20;;;;;;;;;;5056957;28;20040;-59
2024/02/10 03:13:43;;;;;;;11.43;10.23;;;;;;;;;;5056637;28;20039;-59
2024/02/10 03:16:09;;;;;;;26.95;13.60;;;;;;;;;;5057156;28;20021;-59
2024/02/10 03:18:38;;;;;;;33.35;17.88;;;;;;;;;;5056133;28;20390;-59
2024/02/10 03:21:04;;;;;;;20.85;17.35;;;;;;;;;;5056125;28;20123;-59
2024/02/10 03:23:31;;;;;;;56.25;17.30;;;;;;;;;;5056405;28;20114;-59
2024/02/10 03:26:01;;;;;;;25.23;15.13;;;;;;;;;;5056478;28;20021;-58
2024/02/10 03:28:27;;;;;;;20.27;17.87;;;;;;;;;;5056899;28;20463;-59
2024/02/10 03:30:53;;;;;;;23.98;18.55;;;;;;;;;;5056014;28;20036;-59
2024/02/10 03:33:19;;;;;;;24.38;18.95;;;;;;;;;;5055729;28;20021;-59
2024/02/10 03:35:45;;;;;;;27.35;17.92;;;;;;;;;;5055939;28;20025;-59
2024/02/10 03:38:11;;;;;;;20.38;14.95;;;;;;;;;;5055640;28;20025;-58
2024/02/10 03:40:37;;;;;;;22.02;16.88;;;;;;;;;;5055962;28;20065;-59
2024/02/10 03:43:03;;;;;;;164.65;26.00;;;;;;;;;;5055769;28;20447;-59
2024/02/10 03:45:37;;;;;;;220.48;30.20;;;;;;;;;;5056151;28;20482;-59
2024/02/10 03:48:04;;;;;;;254.77;26.85;;;;;;;;;;5055920;28;20459;-59
2024/02/10 03:50:30;;;;;;;170.77;22.05;;;;;;;;;;5055954;28;20037;-59
2024/02/10 03:52:57;;;;;;;132.48;19.20;;;;;;;;;;5056163;28;20025;-59
2024/02/10 03:55:23;;;;;;;205.90;22.10;;;;;;;;;;5055245;28;20368;-59
2024/02/10 03:57:53;;;;;;;88.15;16.25;;;;;;;;;;5055559;28;20096;-59
2024/02/10 04:00:20;;;;;;;138.82;18.08;;;;;;;;;;5055350;28;20466;-59
2024/02/10 04:02:46;;;;;;;151.65;20.23;;;;;;;;;;5055365;28;20021;-59
2024/02/10 04:05:13;;;;;;;91.90;19.35;;;;;;;;;;5055621;28;20059;-59
2024/02/10 04:07:39;;;;;;;40.08;15.63;;;;;;;;;;5055913;28;20067;-59
2024/02/10 04:10:11;;;;;;;90.25;16.83;;;;;;;;;;5055397;28;20455;-59
2024/02/10 04:12:37;;;;;;;110.57;18.17;;;;;;;;;;5055268;28;20434;-59
2024/02/10 04:15:04;;;;;;;152.68;20.48;;;;;;;;;;5055234;28;20067;-59
2024/02/10 04:17:31;;;;;;;55.63;16.05;;;;;;;;;;5055047;28;20374;-59
2024/02/10 04:19:57;;;;;;;71.68;18.50;;;;;;;;;;5054997;28;20031;-59
2024/02/10 04:22:23;;;;;;;117.03;21.23;;;;;;;;;;5054736;28;20436;-59
2024/02/10 04:24:53;;;;;;;39.78;17.52;;;;;;;;;;5054736;28;20100;-59
2024/02/10 04:27:19;;;;;;;210.73;23.40;;;;;;;;;;5054948;28;20078;-59
2024/02/10 04:29:45;;;;;;;103.22;20.05;;;;;;;;;;5055450;28;20112;-59
2024/02/10 04:32:11;;;;;;;99.45;18.88;;;;;;;;;;5054804;28;20459;-59
2024/02/10 04:34:38;;;;;;;137.77;21.80;;;;;;;;;;5055023;28;20067;-59
2024/02/10 04:37:05;;;;;;;72.65;17.65;;;;;;;;;;5055245;28;20024;-59
2024/02/10 04:39:31;;;;;;;140.60;20.17;;;;;;;;;;5055282;28;20040;-59
2024/02/10 04:41:57;;;;;;;109.47;19.77;;;;;;;;;;5054581;28;20028;-59
2024/02/10 04:44:23;;;;;;;258.08;24.40;;;;;;;;;;5054932;28;20032;-59
2024/02/10 04:46:49;;;;;;;104.93;19.17;;;;;;;;;;5054569;28;20035;-59
2024/02/10 04:49:15;;;;;;;63.15;16.40;;;;;;;;;;5055366;28;20463;-60
2024/02/10 04:51:43;;;;;;;30.65;14.48;;;;;;;;;;5054446;28;20064;-59
2024/02/10 04:54:09;;;;;;;110.30;17.27;;;;;;;;;;5054965;28;20029;-60
2024/02/10 04:56:35;;;;;;;29.77;16.90;;;;;;;;;;5054019;28;20136;-59
2024/02/10 04:59:01;;;;;;;52.72;16.40;;;;;;;;;;5054092;28;20060;-59
2024/02/10 05:01:33;;;;;;;27.65;15.25;;;;;;;;;;5054270;28;20045;-59
2024/02/10 05:03:59;;;;;;;42.47;16.65;;;;;;;;;;5054528;28;20057;-59
2024/02/10 05:06:29;;;;;;;31.95;15.95;;;;;;;;;;5054847;28;20355;-59
2024/02/10 05:08:55;;;;;;;48.10;17.42;;;;;;;;;;5054768;28;20033;-59
2024/02/10 05:11:24;;;;;;;62.60;17.00;;;;;;;;;;5054113;28;20444;-59
2024/02/10 05:13:49;;;;;;;74.88;19.50;;;;;;;;;;5054912;28;20109;-59
2024/02/10 05:16:15;;;;;;;55.08;16.85;;;;;;;;;;5054865;28;20407;-59
2024/02/10 05:18:41;;;;;;;63.95;17.60;;;;;;;;;;5054532;28;20048;-59
2024/02/10 05:21:07;;;;;;;31.45;15.60;;;;;;;;;;5054200;28;20036;-59
2024/02/10 05:23:35;;;;;;;44.00;14.93;;;;;;;;;;5054171;28;20592;-59
2024/02/10 05:26:01;;;;;;;69.28;16.75;;;;;;;;;;5053932;28;20033;-59
2024/02/10 05:28:27;;;;;;;20.40;13.75;;;;;;;;;;5054279;28;20031;-59
2024/02/10 05:30:57;;;;;;;31.63;15.57;;;;;;;;;;5053814;28;20037;-59
2024/02/10 05:33:27;;;;;;;47.05;18.05;;;;;;;;;;5054063;28;20029;-59
2024/02/10 05:35:52;;;;;;;47.97;16.50;;;;;;;;;;5053682;28;20502;-59
2024/02/10 05:38:18;;;;;;;24.98;16.40;;;;;;;;;;5054300;28;20017;-59
2024/02/10 05:40:44;;;;;;;38.13;16.92;;;;;;;;;;5053628;28;20033;-59
2024/02/10 05:43:14;;;;;;;27.63;18.52;;;;;;;;;;5053382;28;20098;-59
2024/02/10 05:45:40;;;;;;;19.75;16.42;;;;;;;;;;5053647;28;20025;-59
2024/02/10 05:48:06;;;;;;;22.10;18.05;;;;;;;;;;5053698;28;20035;-59
2024/02/10 05:50:32;;;;;;;20.52;17.48;;;;;;;;;;5053812;28;20467;-59
2024/02/10 05:52:59;;;;;;;39.40;17.85;;;;;;;;;;5054284;28;20086;-59
2024/02/10 05:55:26;;;;;;;20.02;17.38;;;;;;;;;;5053808;28;20048;-59
2024/02/10 05:57:55;;;;;;;23.10;16.85;;;;;;;;;;5053504;28;20025;-59
2024/02/10 06:00:21;;;;;;;33.60;16.17;;;;;;;;;;5053674;28;20391;-59
2024/02/10 06:02:47;;;;;;;32.15;17.63;;;;;;;;;;5053344;28;20029;-59
2024/02/10 06:05:14;;;;;;;32.03;17.23;;;;;;;;;;5054043;28;20161;-59
2024/02/10 06:07:41;;;;;;;24.02;17.10;;;;;;;;;;5054699;28;20119;-59
2024/02/10 06:10:10;;;;;;;20.85;16.67;;;;;;;;;;5057667;28;20482;-59
2024/02/10 06:12:39;;;;;;;18.42;16.33;;;;;;;;;;5058411;28;20029;-59
2024/02/10 06:15:06;;;;;;;25.15;18.17;;;;;;;;;;5057504;28;20032;-59
2024/02/10 06:17:34;;;;;;;21.15;17.27;;;;;;;;;;5057464;28;20032;-59
2024/02/10 06:20:06;;;;;;;25.30;17.95;;;;;;;;;;5057253;28;20033;-59
2024/02/10 06:22:32;;;;;;;19.25;17.05;;;;;;;;;;5057986;28;20029;-59
2024/02/10 06:24:58;;;;;;;20.83;17.40;;;;;;;;;;5057337;28;20047;-59
2024/02/10 06:27:24;;;;;;;19.73;17.50;;;;;;;;;;5057225;28;20100;-59
2024/02/10 06:29:50;;;;;;;19.15;17.17;;;;;;;;;;5056964;28;20120;-59
2024/02/10 06:32:17;;;;;;;20.63;16.15;;;;;;;;;;5057424;28;20021;-59
2024/02/10 06:34:43;;;;;;;18.15;16.25;;;;;;;;;;5057151;28;20070;-59
2024/02/10 06:37:09;;;;;;;17.40;15.15;;;;;;;;;;5056867;28;20463;-59
2024/02/10 06:39:35;;;;;;;20.58;16.73;;;;;;;;;;5057648;28;20025;-59
2024/02/10 06:42:01;;;;;;;20.42;15.60;;;;;;;;;;5057521;28;20029;-58
2024/02/10 06:44:27;;;;;;;19.73;16.23;;;;;;;;;;5057237;28;20363;-59
2024/02/10 06:46:53;;;;;;;18.08;14.88;;;;;;;;;;5056968;28;20021;-59
2024/02/10 06:49:20;;;;;;;21.63;15.60;;;;;;;;;;5057477;28;20512;-58
2024/02/10 06:51:46;;;;;;;20.80;15.77;;;;;;;;;;5056868;28;20079;-59
2024/02/10 06:54:14;;;;;;;17.90;16.08;;;;;;;;;;5056851;28;20025;-59
2024/02/10 06:56:40;;;;;;;18.40;16.55;;;;;;;;;;5056691;28;20049;-59
2024/02/10 06:59:06;;;;;;;20.80;16.88;;;;;;;;;;5056758;28;20112;-58
2024/02/10 07:01:34;;;;;;;25.13;19.42;;;;;;;;;;5056624;28;20036;-59
2024/02/10 07:04:00;;;;;;;19.88;17.75;;;;;;;;;;5056742;28;20021;-59
2024/02/10 07:06:26;;;;;;;21.70;16.40;;;;;;;;;;5056614;28;20438;-59
2024/02/10 07:08:52;;;;;;;20.83;18.55;;;;;;;;;;5057173;28;20021;-59
2024/02/10 07:11:18;;;;;;;25.63;20.50;;;;;;;;;;5056792;28;20033;-59
2024/02/10 07:13:44;;;;;;;21.92;18.65;;;;;;;;;;5056896;28;20025;-59
2024/02/10 07:16:10;;;;;;;23.50;17.77;;;;;;;;;;5056389;28;20029;-59
2024/02/10 07:18:38;;;;;;;26.83;20.42;;;;;;;;;;5056283;28;20017;-59
2024/02/10 07:21:04;;;;;;;22.15;18.20;;;;;;;;;;5056240;28;20037;-59
2024/02/10 07:23:31;;;;;;;23.77;17.50;;;;;;;;;;5056222;28;20474;-59
2024/02/10 07:25:58;;;;;;;20.50;16.95;;;;;;;;;;5056715;28;20025;-59
2024/02/10 07:28:25;;;;;;;20.02;16.13;;;;;;;;;;5056475;28;20052;-59
2024/02/10 07:30:52;;;;;;;19.05;16.10;;;;;;;;;;5056376;28;20033;-59
2024/02/10 07:33:18;;;;;;;25.80;17.17;;;;;;;;;;5056607;28;20078;-59
2024/02/10 07:35:49;;;;;;;18.52;16.45;;;;;;;;;;5056044;28;20029;-59
2024/02/10 07:38:15;;;;;;;22.80;17.38;;;;;;;;;;5057096;28;20097;-59
2024/02/10 07:40:41;;;;;;;22.60;18.25;;;;;;;;;;5055420;28;20072;-59
2024/02/10 07:43:14;;;;;;;19.73;17.17;;;;;;;;;;5055881;28;20025;-59
2024/02/10 07:45:40;;;;;;;18.98;16.70;;;;;;;;;;5056417;28;20421;-59
2024/02/10 07:48:07;;;;;;;22.52;18.83;;;;;;;;;;5056545;28;20116;-59
2024/02/10 07:50:38;;;;;;;18.33;15.38;;;;;;;;;;5056030;28;20118;-59
2024/02/10 07:53:05;;;;;;;17.42;15.57;;;;;;;;;;5056304;28;20035;-59
2024/02/10 07:55:35;;;;;;;23.02;16.55;;;;;;;;;;5055790;28;20045;-59
2024/02/10 07:58:04;;;;;;;22.77;18.27;;;;;;;;;;5056148;28;20044;-59
2024/02/10 08:00:30;;;;;;;20.73;16.40;;;;;;;;;;5055475;28;20052;-59
2024/02/10 08:02:56;;;;;;;21.50;17.58;;;;;;;;;;5055532;28;20023;-59
2024/02/10 08:05:22;;;;;;;21.92;18.13;;;;;;;;;;5056001;28;20108;-59
2024/02/10 08:07:48;;;;;;;19.40;17.50;;;;;;;;;;5055894;28;20116;-59
2024/02/10 08:10:15;;;;;;;21.75;17.80;;;;;;;;;;5055071;28;20493;-59
2024/02/10 08:12:45;;;;;;;24.73;19.25;;;;;;;;;;5056093;28;20515;-59
2024/02/10 08:15:11;;;;;;;24.20;19.25;;;;;;;;;;5055230;28;20032;-59
2024/02/10 08:17:40;;;;;;;32.05;19.17;;;;;;;;;;5055787;28;20021;-59
2024/02/10 08:20:11;;;;;;;75.03;21.83;;;;;;;;;;5055163;28;20505;-59
2024/02/10 08:22:37;;;;;;;;;;;;;;;;;;5056223;28;20368;-59
2024/02/10 08:25:04;;;;;;;117.95;22.80;;;;;;;;;;5055900;28;19905;-59
2024/02/10 08:27:31;;;;;;;154.07;23.00;;;;;;;;;;5054915;28;20025;-59
2024/02/10 08:30:04;;;;;;;155.50;25.25;;;;;;;;;;5055060;28;20056;-59
2024/02/10 08:32:31;;;;;;;127.20;22.13;;;;;;;;;;5054944;28;20395;-59
2024/02/10 08:35:00;;;;;;;148.00;21.70;;;;;;;;;;5054838;28;20021;-59
2024/02/10 08:37:29;;;;;;;46.55;17.70;;;;;;;;;;5054777;28;20037;-59
2024/02/10 08:39:57;;;;;;;75.40;20.50;;;;;;;;;;5055345;28;20067;-59
2024/02/10 08:42:24;;;;;;;27.17;19.55;;;;;;;;;;5055250;28;20025;-59
2024/02/10 08:44:50;;;;;;;21.02;17.10;;;;;;;;;;5054731;28;20371;-59
2024/02/10 08:47:16;;;;;;;20.67;16.35;;;;;;;;;;5054347;28;20033;-59
2024/02/10 08:49:42;;;;;;;18.25;15.77;;;;;;;;;;5054982;28;20056;-59
2024/02/10 08:52:14;;;;;;;17.52;15.63;;;;;;;;;;5054628;28;20467;-59
2024/02/10 08:54:40;;;;;;;18.85;16.85;;;;;;;;;;5055133;28;20033;-59
2024/02/10 08:57:09;;;;;;;19.77;17.77;;;;;;;;;;5055070;28;20051;-59
2024/02/10 08:59:40;;;;;;;18.05;15.82;;;;;;;;;;5054960;28;20025;-59
2024/02/10 09:02:06;;;;;;;22.23;16.38;;;;;;;;;;5054811;28;20037;-59
2024/02/10 09:04:34;;;;;;;22.52;17.17;;;;;;;;;;5055019;28;20029;-59
2024/02/10 09:07:00;;;;;;;21.63;16.75;;;;;;;;;;5053629;28;20203;-59
2024/02/10 09:09:27;;;;;;;19.88;17.45;;;;;;;;;;5054479;28;20031;-59
2024/02/10 09:11:53;;;;;;;21.60;18.25;;;;;;;;;;5053898;28;20475;-59
2024/02/10 09:14:19;;;;;;;26.23;18.70;;;;;;;;;;5054188;28;20017;-59
2024/02/10 09:16:48;;;;;;;21.52;18.52;;;;;;;;;;5054705;28;20025;-59
2024/02/10 09:19:16;;;;;;;23.95;17.80;;;;;;;;;;5054605;28;20056;-59
2024/02/10 09:21:44;;;;;;;66.40;20.52;;;;;;;;;;5053956;28;20029;-59
2024/02/10 09:24:13;;;;;;;33.58;23.00;;;;;;;;;;5053863;28;20087;-59
2024/02/10 09:26:40;;;;;;;28.17;20.50;;;;;;;;;;5054160;28;20032;-58
2024/02/10 09:29:06;;;;;;;24.90;19.65;;;;;;;;;;5054421;28;20347;-60
2024/02/10 09:31:32;;;;;;;22.20;18.95;;;;;;;;;;5053826;28;20056;-60
2024/02/10 09:34:00;;;;;;;24.90;20.88;;;;;;;;;;5053822;28;20021;-60
2024/02/10 09:36:26;;;;;;;21.58;17.92;;;;;;;;;;5053729;28;20478;-60
2024/02/10 09:38:53;;;;;;;25.15;19.33;;;;;;;;;;5054229;28;20063;-60
2024/02/10 09:41:18;;;;;;;23.73;19.17;;;;;;;;;;5053821;28;20466;-58
2024/02/10 09:43:48;;;;;;;35.88;21.25;;;;;;;;;;5054097;28;20021;-59
2024/02/10 09:46:14;;;;;;;22.95;18.50;;;;;;;;;;5054024;28;20040;-58
2024/02/10 09:48:45;;;;;;;20.02;17.38;;;;;;;;;;5053922;28;20021;-60
2024/02/10 09:51:11;;;;;;;20.55;18.02;;;;;;;;;;5053481;28;20091;-60
2024/02/10 09:53:40;;;;;;;19.52;16.42;;;;;;;;;;5053504;28;20025;-60
2024/02/10 09:56:10;;;;;;;22.85;18.02;;;;;;;;;;5053958;28;20084;-60
2024/02/10 09:58:39;;;;;;;21.42;17.52;;;;;;;;;;5053868;28;20035;-60
2024/02/10 10:01:06;;;;;;;18.95;16.13;;;;;;;;;;5053396;28;20041;-59
2024/02/10 10:03:32;;;;;;;20.42;15.85;;;;;;;;;;5053343;28;20033;-60
2024/02/10 10:05:59;;;;;;;19.67;17.13;;;;;;;;;;5053568;28;20032;-59
2024/02/10 10:08:25;;;;;;;23.20;17.65;;;;;;;;;;5053110;28;20159;-59
2024/02/10 10:10:51;;;;;;;17.73;15.85;;;;;;;;;;5052989;28;20066;-60
2024/02/10 10:13:18;;;;;;;19.90;16.23;;;;;;;;;;5053671;28;20021;-59
2024/02/10 10:15:44;;;;;;;19.77;15.90;;;;;;;;;;5053601;28;20032;-60
2024/02/10 10:18:14;;;;;;;18.35;16.55;;;;;;;;;;5054140;28;20192;-60
2024/02/10 10:20:41;;;;;;;17.50;15.70;;;;;;;;;;5053270;28;20032;-60
2024/02/10 10:23:08;;;;;;;18.52;15.45;;;;;;;;;;5053357;28;20251;-59
2024/02/10 10:25:34;;;;;;;18.52;15.55;;;;;;;;;;5053537;28;20398;-60
2024/02/10 10:28:03;;;;;;;16.88;15.20;;;;;;;;;;5053683;28;20467;-59
2024/02/10 10:30:30;;;;;;;17.00;15.15;;;;;;;;;;5053651;28;20362;-60
2024/02/10 10:32:57;;;;;;;17.80;15.55;;;;;;;;;;5053219;28;20044;-60
2024/02/10 10:35:23;;;;;;;16.30;14.60;;;;;;;;;;5053367;28;20471;-60
2024/02/10 10:37:50;;;;;;;20.63;15.60;;;;;;;;;;5053169;28;20021;-60
2024/02/10 10:40:16;;;;;;;18.60;14.68;;;;;;;;;;5052057;28;20040;-60
2024/02/10 10:42:45;;;;;;;19.35;15.30;;;;;;;;;;5053288;28;20025;-60
2024/02/10 10:45:12;;;;;;;15.43;13.82;;;;;;;;;;5052717;28;20466;-60
2024/02/10 10:47:40;;;;;;;21.30;16.42;;;;;;;;;;5053636;28;20060;-60
2024/02/10 10:50:07;;;;;;;17.83;14.60;;;;;;;;;;5052995;28;20086;-60
2024/02/10 10:52:34;;;;;;;17.05;14.82;;;;;;;;;;5052239;28;20040;-60
2024/02/10 10:55:01;;;;;;;19.13;15.30;;;;;;;;;;5055561;28;20025;-60
2024/02/10 10:57:28;;;;;;;20.73;17.40;;;;;;;;;;5056597;28;20134;-60
2024/02/10 11:00:00;;;;;;;18.65;16.45;;;;;;;;;;5056689;28;20408;-60
2024/02/10 11:02:28;;;;;;;22.90;16.70;;;;;;;;;;5057299;28;20047;-60
2024/02/10 11:05:02;;;;;;;19.80;16.27;;;;;;;;;;5056255;28;20070;-59
2024/02/10 11:07:36;;;;;;;20.90;17.42;;;;;;;;;;5056410;28;20029;-59
2024/02/10 11:10:04;;;;;;;24.00;16.42;;;;;;;;;;5056844;28;20121;-60
2024/02/10 11:12:35;;;;;;;22.65;17.45;;;;;;;;;;5056544;28;20374;-58
2024/02/10 11:15:02;;;;;;;17.95;16.05;;;;;;;;;;5057047;28;20412;-57
2024/02/10 11:17:30;;;;;;;18.95;16.45;;;;;;;;;;5056016;28;20025;-59
2024/02/10 11:19:59;;;;;;;21.17;16.33;;;;;;;;;;5056163;28;20025;-59
2024/02/10 11:22:29;;;;;;;20.17;15.23;;;;;;;;;;5056045;28;20049;-59
2024/02/10 11:25:00;;;;;;;17.55;15.27;;;;;;;;;;5056102;28;20029;-61
2024/02/10 11:27:26;;;;;;;22.52;18.08;;;;;;;;;;5056925;28;20025;-60
2024/02/10 11:29:58;;;;;;;23.65;18.17;;;;;;;;;;5056569;28;20112;-60
2024/02/10 11:32:24;;;;;;;21.15;18.95;;;;;;;;;;5056415;28;20354;-60
2024/02/10 11:34:50;;;;;;;22.13;19.38;;;;;;;;;;5055571;28;20112;-59
2024/02/10 11:37:17;;;;;;;19.75;17.00;;;;;;;;;;5056390;28;20021;-59
2024/02/10 11:39:43;;;;;;;22.60;19.25;;;;;;;;;;5056771;28;20036;-61
2024/02/10 11:42:10;;;;;;;22.60;19.25;;;;;;;;;;5056235;28;20101;-59
2024/02/10 11:44:37;;;;;;;21.45;18.40;;;;;;;;;;5056300;28;20143;-60
2024/02/10 11:47:04;;;;;;;24.35;19.90;;;;;;;;;;5055769;28;20035;-59
2024/02/10 11:49:30;;;;;;;20.85;18.02;;;;;;;;;;5056295;28;20056;-59
2024/02/10 11:51:57;;;;;;;21.90;18.25;;;;;;;;;;5055355;28;20033;-59
2024/02/10 11:54:26;;;;;;;20.52;17.02;;;;;;;;;;5056392;28;20071;-58
2024/02/10 11:56:52;;;;;;;20.30;17.50;;;;;;;;;;5055944;28;20056;-58
2024/02/10 11:59:18;;;;;;;21.00;16.63;;;;;;;;;;5055961;28;20359;-58
2024/02/10 12:01:44;;;;;;;18.83;16.45;;;;;;;;;;5055942;28;20033;-58
2024/02/10 12:04:18;;;;;;;21.38;16.85;;;;;;;;;;5055460;28;20040;-59
2024/02/10 12:06:46;;;;;;;20.98;15.73;;;;;;;;;;5055256;28;20035;-59
2024/02/10 12:09:12;;;;;;;19.13;15.68;;;;;;;;;;5055278;28;20459;-59
2024/02/10 12:11:38;;;;;;;19.42;17.17;;;;;;;;;;5055408;28;20123;-59
2024/02/10 12:14:06;;;;;;;17.67;15.88;;;;;;;;;;5055367;28;20074;-59
2024/02/10 12:16:33;;;;;;;18.75;16.13;;;;;;;;;;5055191;28;20025;-59
2024/02/10 12:19:01;;;;;;;20.40;16.58;;;;;;;;;;5055189;28;20033;-59
2024/02/10 12:21:27;;;;;;;15.98;14.27;;;;;;;;;;5055657;28;20065;-59
2024/02/10 12:23:56;;;;;;;17.60;14.23;;;;;;;;;;5055959;28;20321;-59
2024/02/10 12:26:23;;;;;;;16.10;14.32;;;;;;;;;;5055021;28;20024;-59
2024/02/10 12:28:51;;;;;;;16.77;13.27;;;;;;;;;;5055915;28;20082;-59
2024/02/10 12:31:18;;;;;;;17.50;13.98;;;;;;;;;;5054712;28;20036;-59
2024/02/10 12:33:44;;;;;;;12.98;11.45;;;;;;;;;;5055479;28;20029;-59
2024/02/10 12:36:11;;;;;;;13.48;12.18;;;;;;;;;;5055607;28;20032;-59
2024/02/10 12:38:38;;;;;;;14.43;11.95;;;;;;;;;;5054824;28;20363;-59
2024/02/10 12:41:05;;;;;;;15.98;12.77;;;;;;;;;;5055127;28;20029;-60
2024/02/10 12:43:31;;;;;;;14.70;12.55;;;;;;;;;;5054931;28;20530;-60
2024/02/10 12:45:57;;;;;;;14.35;12.80;;;;;;;;;;5053274;28;20474;-59
2024/02/10 12:48:23;;;;;;;13.48;11.98;;;;;;;;;;5055287;28;20032;-59
2024/02/10 12:50:50;;;;;;;16.30;13.88;;;;;;;;;;5054607;28;20029;-59
2024/02/10 12:53:16;;;;;;;13.70;11.95;;;;;;;;;;5054646;28;20111;-59
2024/02/10 12:55:42;;;;;;;13.38;11.98;;;;;;;;;;5054362;28;20045;-59
2024/02/10 12:58:09;;;;;;;13.73;12.35;;;;;;;;;;5054459;28;20028;-59
2024/02/10 13:00:35;;;;;;;12.88;11.50;;;;;;;;;;5054274;28;20040;-59
2024/02/10 13:03:01;;;;;;;13.68;10.77;;;;;;;;;;5054798;28;20107;-60
2024/02/10 13:05:28;;;;;;;12.20;10.88;;;;;;;;;;5054278;28;20055;-60
2024/02/10 13:07:54;;;;;;;14.00;10.98;;;;;;;;;;5054158;28;20036;-60
2024/02/10 13:10:21;;;;;;;13.15;11.82;;;;;;;;;;5054634;28;20032;-60
2024/02/10 13:12:51;;;;;;;13.63;11.35;;;;;;;;;;5053999;28;20477;-59
2024/02/10 13:15:18;;;;;;;12.80;11.23;;;;;;;;;;5054064;28;20496;-59
2024/02/10 13:17:44;;;;;;;12.70;10.48;;;;;;;;;;5053844;28;20461;-60
2024/02/10 13:20:13;;;;;;;11.45;10.35;;;;;;;;;;5054059;28;20029;-59
2024/02/10 13:22:40;;;;;;;11.85;9.90;;;;;;;;;;5054594;28;20028;-60
2024/02/10 13:25:08;;;;;;;11.35;10.13;;;;;;;;;;5053572;28;20021;-60
2024/02/10 13:27:34;;;;;;;13.85;10.68;;;;;;;;;;5054313;28;20111;-60
2024/02/10 13:30:00;;;;;;;11.40;9.98;;;;;;;;;;5053535;28;20065;-60
2024/02/10 13:32:27;;;;;;;12.57;10.40;;;;;;;;;;5053913;28;20017;-60
2024/02/10 13:34:55;;;;;;;13.13;11.27;;;;;;;;;;5053930;28;20032;-59
2024/02/10 14:04:56;;;;;;;11.90;10.43;;;;;;;;;;5053615;28;20032;-59
2024/02/10 14:09:55;;;;;;;11.68;10.25;;;;;;;;;;5053645;28;20025;-59
2024/02/10 14:12:21;;;;;;;11.68;10.48;;;;;;;;;;5053753;28;20029;-58
2024/02/10 14:14:47;;;;;;;10.00;8.57;;;;;;;;;;5053443;28;20078;-59
2024/02/10 14:17:16;;;;;;;11.75;9.20;;;;;;;;;;5053440;28;20025;-59
2024/02/10 14:19:48;;;;;;;11.52;10.38;;;;;;;;;;5053451;28;20021;-59
2024/02/10 14:22:15;;;;;;;16.63;10.45;;;;;;;;;;5053881;28;20037;-59
2024/02/10 14:24:45;;;;;;;12.57;9.57;;;;;;;;;;5053301;28;20029;-59
2024/02/10 14:27:14;;;;;;;11.25;9.65;;;;;;;;;;5053439;28;20033;-59
2024/02/10 14:29:43;;;;;;;16.38;11.05;;;;;;;;;;5056420;28;20040;-59
2024/02/10 14:32:10;;;;;;;11.77;9.88;;;;;;;;;;5057275;28;20036;-59
2024/02/10 14:34:47;;;;;;;11.48;10.32;;;;;;;;;;5057420;28;20090;-58
2024/02/10 14:39:59;;;;;;;12.15;10.75;;;;;;;;;;5057479;28;20075;-59
2024/02/10 14:42:25;;;;;;;11.63;10.43;;;;;;;;;;5056974;28;20037;-59
2024/02/10 14:44:51;;;;;;;14.23;10.75;;;;;;;;;;5057345;28;20024;-59
2024/02/10 14:47:19;;;;;;;12.75;10.63;;;;;;;;;;5057243;28;20021;-59
2024/02/10 14:49:46;;;;;;;14.48;10.18;;;;;;;;;;5057561;28;20399;-59
2024/02/10 14:52:13;;;;;;;15.20;11.30;;;;;;;;;;5056908;28;20378;-59
2024/02/10 14:54:45;;;;;;;13.40;10.07;;;;;;;;;;5057375;28;20029;-59